Time;durP1;ratioP1;P1;durP2;ratioP2;P2;SDS_P1;SDS_P2;PMS_P1;PMS_P2;Temp;Humidity;BMP_temperature;BMP_pressure;BME280_temperature;BME280_humidity;BME280_pressure;Samples;Min_cycle;Max_cycle;Signal;HPM_P1;HPM_P2
2022/09/05 00:02:27;;;;;;;;;;;;;;;13.20;62.90;101554.25;1670875;85;20484;-69
2022/09/05 00:05:50;;;;;;;;;;;;;;;13.18;63.00;101549.08;1676754;85;20195;-69
2022/09/05 00:08:44;;;;;;;;;;;;;;;13.18;63.07;101553.09;1671092;85;20223;-69
2022/09/05 00:11:43;;;;;;;;;;;;;;;13.16;63.18;101547.03;1674273;85;20861;-69
2022/09/05 00:14:49;;;;;;;;;;;;;;;13.12;63.28;101552.39;1672254;85;20187;-69
2022/09/05 00:18:07;;;;;;;;;;;;;;;13.08;63.35;101552.33;1661024;85;20212;-69
2022/09/05 00:21:10;;;;;;;;;;;;;;;13.05;63.45;101553.98;1660300;85;20519;-69
2022/09/05 00:24:09;;;;;;;;;;;;;;;13.04;63.53;101557.66;1675255;84;20187;-69
2022/09/05 00:27:00;;;;;;;;;;;;;;;13.04;63.61;101557.66;1668093;85;20188;-69
2022/09/05 00:30:06;;;;;;;;;;;;;;;12.99;63.68;101558.12;1676324;85;20187;-69
2022/09/05 00:33:13;;;;;;;;;;;;;;;12.97;63.74;101553.92;1637446;85;20275;-69
2022/09/05 00:36:18;;;;;;;;;;;;;;;12.92;63.85;101560.23;1675142;85;20468;-69
2022/09/05 00:39:03;;;;;;;;;;;;;;;12.88;63.95;101560.20;1673912;84;20492;-69
2022/09/05 00:41:49;;;;;;;;;;;;;;;12.86;64.04;101562.20;1659381;85;20516;-69
2022/09/05 00:44:36;;;;;;;;;;;;;;;12.84;64.11;101573.06;1671865;84;20192;-69
2022/09/05 00:47:27;;;;;;;;;;;;;;;12.79;64.18;101566.50;1658918;85;20208;-69
2022/09/05 00:50:17;;;;;;;;;;;;;;;12.75;64.26;101563.30;1672800;85;20246;-68
2022/09/05 00:53:05;;;;;;;;;;;;;;;12.70;64.35;101562.09;1667479;84;20203;-68
2022/09/05 00:56:02;;;;;;;;;;;;;;;12.65;64.43;101555.02;1667604;85;20524;-69
2022/09/05 00:59:21;;;;;;;;;;;;;;;12.61;64.46;101563.01;1660856;85;20191;-68
2022/09/05 01:02:17;;;;;;;;;;;;;;;12.57;64.56;101564.30;1669962;85;20543;-69
2022/09/05 01:05:07;;;;;;;;;;;;;;;12.51;64.66;101563.95;1618203;85;20531;-68
2022/09/05 01:08:14;;;;;;;;;;;;;;;12.46;64.77;101558.20;1643676;85;20894;-68
2022/09/05 01:11:10;;;;;;;;;;;;;;;12.44;64.86;101569.56;1658860;85;20184;-68
2022/09/05 01:14:10;;;;;;;;;;;;;;;12.41;64.96;101568.54;1674089;84;20183;-69
2022/09/05 01:17:14;;;;;;;;;;;;;;;12.39;65.05;101567.83;1633831;85;20198;-68
2022/09/05 01:20:26;;;;;;;;;;;;;;;12.37;65.16;101565.82;1673578;85;20192;-69
2022/09/05 01:23:24;;;;;;;;;;;;;;;12.39;65.26;101571.84;1668328;85;37544;-68
2022/09/05 01:26:27;;;;;;;;;;;;;;;12.40;65.36;101575.37;1669986;85;20203;-68
2022/09/05 01:29:30;;;;;;;;;;;;;;;12.41;65.46;101571.22;1673043;85;20492;-68
2022/09/05 01:32:30;;;;;;;;;;;;;;;12.42;65.53;101572.87;1672754;85;20559;-68
2022/09/05 01:35:42;;;;;;;;;;;;;;;12.40;65.62;101572.20;1673435;85;20200;-69
2022/09/05 01:38:38;;;;;;;;;;;;;;;12.39;65.67;101571.84;1658067;85;20234;-69
2022/09/05 01:41:44;;;;;;;;;;;;;;;12.37;65.78;101568.50;1663745;85;20208;-69
2022/09/05 01:44:50;;;;;;;;;;;;;;;12.36;65.86;101568.14;1672621;85;20235;-68
2022/09/05 01:48:03;;;;;;;;;;;;;;;12.40;65.96;101561.50;1673612;85;20200;-69
2022/09/05 01:50:56;;;;;;;;;;;;;;;12.40;66.03;101563.33;1673856;85;20187;-68
2022/09/05 01:53:50;;;;;;;;;;;;;;;12.39;66.13;101569.17;1660718;85;20507;-68
2022/09/05 01:56:38;;;;;;;;;;;;;;;12.38;66.21;101567.52;1673015;84;20236;-68
2022/09/05 01:59:48;;;;;;;;;;;;;;;12.35;66.29;101566.45;1673781;85;20235;-68
2022/09/05 02:02:48;;;;;;;;;;;;;;;12.33;66.36;101565.78;1672999;85;20282;-69
2022/09/05 02:05:35;;;;;;;;;;;;;;;12.33;66.44;101569.80;1662316;85;20674;-69
2022/09/05 02:08:52;;;;;;;;;;;;;;;12.32;66.52;101565.92;1673309;85;20200;-68
2022/09/05 02:11:42;;;;;;;;;;;;;;;12.31;66.59;101569.61;1672086;85;20553;-69
2022/09/05 02:14:36;;;;;;;;;;;;;;;12.29;66.71;101567.07;1673422;85;20196;-68
2022/09/05 02:17:44;;;;;;;;;;;;;;;12.27;66.77;101568.23;1672960;85;20219;-69
2022/09/05 02:20:34;;;;;;;;;;;;;;;12.25;66.83;101569.70;1672925;84;20212;-68
2022/09/05 02:23:21;;;;;;;;;;;;;;;12.25;66.93;101573.72;1673828;84;20216;-68
2022/09/05 02:26:18;;;;;;;;;;;;;;;12.24;67.00;101570.72;1667505;85;20183;-68
2022/09/05 02:29:15;;;;;;;;;;;;;;;12.23;67.05;101576.20;1671296;85;20219;-68
2022/09/05 02:32:20;;;;;;;;;;;;;;;12.20;67.12;101580.03;1673379;85;20219;-69
2022/09/05 02:35:14;;;;;;;;;;;;;;;12.16;67.21;101574.64;1668278;84;20530;-69
2022/09/05 02:38:10;;;;;;;;;;;;;;;12.14;67.25;101579.80;1672054;85;20208;-68
2022/09/05 02:40:57;;;;;;;;;;;;;;;12.11;67.32;101582.26;1679827;84;20195;-68
2022/09/05 02:43:45;;;;;;;;;;;;;;;12.09;67.37;101583.41;1681014;85;20222;-68
2022/09/05 02:46:32;;;;;;;;;;;;;;;12.06;67.40;101584.56;1681483;84;20228;-69
2022/09/05 02:49:43;;;;;;;;;;;;;;;12.01;67.48;101581.48;1676929;84;20503;-68
2022/09/05 02:52:29;;;;;;;;;;;;;;;11.99;67.54;101584.81;1673770;85;20215;-69
2022/09/05 02:55:24;;;;;;;;;;;;;;;11.96;67.56;101589.13;1657044;85;20191;-68
2022/09/05 02:58:20;;;;;;;;;;;;;;;11.93;67.61;101588.91;1680742;85;20191;-68
2022/09/05 03:01:23;;;;;;;;;;;;;;;11.90;67.67;101587.03;1677657;84;20224;-68
2022/09/05 03:04:17;;;;;;;;;;;;;;;11.87;67.74;101582.83;1681592;85;20463;-68
2022/09/05 03:07:08;;;;;;;;;;;;;;;11.84;67.79;101583.63;1680927;85;20188;-68
2022/09/05 03:10:29;;;;;;;;;;;;;;;11.81;67.85;101587.94;1664906;85;20214;-68
2022/09/05 03:13:29;;;;;;;;;;;;;;;11.74;67.94;101589.52;1675198;85;20219;-68
2022/09/05 03:16:50;;;;;;;;;;;;;;;11.67;68.00;101585.72;1674966;85;20219;-68
2022/09/05 03:20:09;;;;;;;;;;;;;;;11.62;68.07;101590.66;1671618;85;20483;-68
2022/09/05 03:23:12;;;;;;;;;;;;;;;11.54;68.15;101586.05;1669718;84;20223;-69
2022/09/05 03:26:35;;;;;;;;;;;;;;;11.48;68.19;101592.83;1669680;85;20582;-68
2022/09/05 03:29:35;;;;;;;;;;;;;;;11.45;68.23;101592.28;1679614;84;20198;-68
2022/09/05 03:32:47;;;;;;;;;;;;;;;11.39;68.29;101593.72;1680393;85;20492;-68
2022/09/05 03:35:52;;;;;;;;;;;;;;;11.37;68.33;101590.33;1680908;85;20226;-68
2022/09/05 03:39:04;;;;;;;;;;;;;;;11.33;68.39;101588.94;1679285;84;20250;-68
2022/09/05 03:42:04;;;;;;;;;;;;;;;11.32;68.46;101593.11;1668663;85;20278;-68
2022/09/05 03:44:55;;;;;;;;;;;;;;;11.31;68.54;101584.73;1666055;84;20223;-68
2022/09/05 03:48:05;;;;;;;;;;;;;;;11.32;68.63;101581.94;1680743;84;20231;-68
2022/09/05 03:51:05;;;;;;;;;;;;;;;11.33;68.71;101580.92;1674180;84;20214;-68
2022/09/05 03:53:58;;;;;;;;;;;;;;;11.34;68.80;101590.63;1670634;85;20231;-68
2022/09/05 03:57:20;;;;;;;;;;;;;;;11.35;68.88;101590.98;1676593;85;20535;-68
2022/09/05 04:00:21;;;;;;;;;;;;;;;11.38;68.95;101603.20;1663722;85;20207;-68
2022/09/05 04:03:11;;;;;;;;;;;;;;;11.39;69.03;101594.20;1680481;85;20195;-68
2022/09/05 04:05:59;;;;;;;;;;;;;;;11.39;69.08;101592.38;1680828;84;20202;-68
2022/09/05 04:08:56;;;;;;;;;;;;;;;11.42;69.13;101596.58;1658967;85;20234;-69
2022/09/05 04:11:46;;;;;;;;;;;;;;;11.41;69.18;101594.40;1663273;84;20440;-68
2022/09/05 04:14:49;;;;;;;;;;;;;;;11.39;69.21;101605.73;1680501;84;20335;-68
2022/09/05 04:17:43;;;;;;;;;;;;;;;11.39;69.29;101604.41;1680563;85;20183;-68
2022/09/05 04:20:46;;;;;;;;;;;;;;;11.38;69.33;101609.39;1677164;85;20191;-68
2022/09/05 04:23:37;;;;;;;;;;;;;;;11.39;69.42;101611.08;1673979;85;20179;-68
2022/09/05 04:26:25;;;;;;;;;;;;;;;11.39;69.49;101614.23;1680162;84;20191;-68
2022/09/05 04:29:25;;;;;;;;;;;;;;;11.37;69.54;101619.72;1679226;84;20496;-68
2022/09/05 04:32:46;;;;;;;;;;;;;;;11.36;69.59;101615.38;1680845;85;20176;-68
2022/09/05 04:35:48;;;;;;;;;;;;;;;11.36;69.67;101624.73;1680128;84;20218;-69
2022/09/05 04:38:35;;;;;;;;;;;;;;;11.35;69.72;101624.86;1679822;85;20215;-68
2022/09/05 04:41:22;;;;;;;;;;;;;;;11.34;69.81;101621.34;1677184;84;20204;-68
2022/09/05 04:44:10;;;;;;;;;;;;;;;11.49;69.99;101617.23;1679029;84;20534;-68
2022/09/05 04:47:03;;;;;;;;;;;;;;;12.24;70.20;101628.22;1668637;85;20199;-68
2022/09/05 04:50:12;;;;;;;;;;;;;;;13.22;70.03;101624.11;1678171;85;20211;-69
2022/09/05 04:53:15;;;;;;;;;;;;;;;13.97;69.58;101627.84;1680825;85;20222;-68
2022/09/05 04:55:59;;;;;;;;;;;;;;;14.58;69.08;101630.22;1679238;84;20196;-68
2022/09/05 04:58:50;;;;;;;;;;;;;;;15.24;68.60;101631.39;1668622;85;20495;-68
2022/09/05 05:01:47;;;;;;;;;;;;;;;15.52;67.96;101636.44;1680120;85;20195;-68
2022/09/05 05:04:31;;;;;;;;;;;;;;;15.95;67.49;101638.62;1675664;84;20183;-68
2022/09/05 05:07:27;;;;;;;;;;;;;;;16.42;66.94;101643.45;1668121;85;20553;-68
2022/09/05 05:10:18;;;;;;;;;;;;;;;16.77;66.36;101643.41;1664012;85;20472;-69
2022/09/05 05:13:06;;;;;;;;;;;;;;;16.94;65.64;101641.42;1681595;85;20218;-68
2022/09/05 05:15:53;;;;;;;;;;;;;;;17.18;65.00;101634.97;1668291;84;20194;-68
2022/09/05 05:18:46;;;;;;;;;;;;;;;17.47;64.27;101637.73;1680765;85;20219;-69
2022/09/05 05:21:30;;;;;;;;;;;;;;;17.71;63.52;101642.05;1681279;84;20215;-69
2022/09/05 05:24:15;;;;;;;;;;;;;;;17.73;62.51;101642.72;1675768;85;20226;-69
2022/09/05 05:27:15;;;;;;;;;;;;;;;17.29;61.57;101638.08;1680006;85;20191;-69
2022/09/05 05:30:05;;;;;;;;;;;;;;;16.74;61.61;101648.32;1678502;85;20492;-68
2022/09/05 05:32:51;;;;;;;;;;;;;;;16.05;62.00;101647.83;1668342;85;20176;-69
2022/09/05 05:35:34;;;;;;;;;;;;;;;15.83;62.29;101650.80;1681375;85;20183;-69
2022/09/05 05:38:28;;;;;;;;;;;;;;;15.78;62.30;101647.78;1668001;85;20191;-69
2022/09/05 05:41:19;;;;;;;;;;;;;;;15.71;62.29;101646.80;1662716;84;20231;-69
2022/09/05 05:44:12;;;;;;;;;;;;;;;15.53;62.20;101638.09;1680992;85;20211;-69
2022/09/05 05:47:27;;;;;;;;;;;;;;;15.64;62.29;101648.49;1680939;85;20247;-69
2022/09/05 05:50:18;;;;;;;;;;;;;;;15.71;62.11;101637.37;1681094;85;20179;-69
2022/09/05 05:53:33;;;;;;;;;;;;;;;15.71;61.97;101638.72;1681524;85;20230;-69
2022/09/05 05:56:36;;;;;;;;;;;;;;;15.76;61.89;101639.06;1680576;85;20203;-69
2022/09/05 05:59:39;;;;;;;;;;;;;;;15.78;61.78;101637.86;1681454;85;20219;-69
2022/09/05 06:02:36;;;;;;;;;;;;;;;15.80;61.69;101637.67;1670808;84;20211;-69
2022/09/05 06:05:43;;;;;;;;;;;;;;;15.92;61.58;101638.98;1680621;85;20223;-69
2022/09/05 06:09:03;;;;;;;;;;;;;;;15.93;61.37;101646.89;1663452;84;20199;-69
2022/09/05 06:12:10;;;;;;;;;;;;;;;15.84;61.30;101643.89;1676221;85;20226;-69
2022/09/05 06:15:24;;;;;;;;;;;;;;;16.03;61.22;101643.98;1680716;84;20231;-69
2022/09/05 06:18:25;;;;;;;;;;;;;;;16.18;61.08;101649.47;1672453;85;20214;-69
2022/09/05 06:21:28;;;;;;;;;;;;;;;16.29;60.94;101641.82;1644313;85;20180;-69
2022/09/05 06:24:18;;;;;;;;;;;;;;;16.34;60.81;101641.30;1619189;87;20204;-69
2022/09/05 06:27:27;;;;;;;;;;;;;;;16.44;60.66;101644.10;1672542;84;20211;-69
2022/09/05 06:30:14;;;;;;;;;;;;;;;16.58;60.55;101647.06;1679036;84;20187;-69
2022/09/05 06:33:12;;;;;;;;;;;;;;;16.58;60.37;101650.61;1656118;85;20211;-69
2022/09/05 06:36:23;;;;;;;;;;;;;;;16.71;60.30;101652.73;1677836;84;20223;-69
2022/09/05 06:39:14;;;;;;;;;;;;;;;16.78;60.14;101657.73;1679549;84;20243;-69
2022/09/05 06:42:11;;;;;;;;;;;;;;;16.91;60.07;101656.11;1679015;84;20219;-69
2022/09/05 06:45:08;;;;;;;;;;;;;;;16.99;59.92;101654.67;1663251;84;20222;-69
2022/09/05 06:47:55;;;;;;;;;;;;;;;17.12;59.79;101658.12;1653406;84;20180;-69
2022/09/05 06:51:05;;;;;;;;;;;;;;;17.10;59.59;101662.84;1680047;85;20207;-69
2022/09/05 06:53:53;;;;;;;;;;;;;;;17.14;59.46;101664.16;1674942;84;20207;-69
2022/09/05 06:56:41;;;;;;;;;;;;;;;17.31;59.37;101665.68;1680138;85;20187;-69
2022/09/05 06:59:45;;;;;;;;;;;;;;;17.53;59.26;101663.11;1674989;84;20204;-69
2022/09/05 07:02:38;;;;;;;;;;;;;;;17.66;59.05;101662.02;1677189;85;20250;-69
2022/09/05 07:05:35;;;;;;;;;;;;;;;17.81;58.87;101664.19;1675093;85;20516;-69
2022/09/05 07:08:38;;;;;;;;;;;;;;;17.73;58.65;101670.51;1679129;84;20187;-69
2022/09/05 07:11:31;;;;;;;;;;;;;;;17.98;58.59;101665.16;1670926;85;20247;-69
2022/09/05 07:14:21;;;;;;;;;;;;;;;18.21;58.44;101673.66;1673558;85;20200;-69
2022/09/05 07:17:13;;;;;;;;;;;;;;;18.28;58.14;101681.34;1680788;85;20503;-70
2022/09/05 07:19:58;;;;;;;;;;;;;;;18.30;58.08;101678.76;1681385;85;20487;-69
2022/09/05 07:23:09;;;;;;;;;;;;;;;18.47;57.96;101683.45;1679257;84;20207;-69
2022/09/05 07:25:54;;;;;;;;;;;;;;;18.46;57.75;101686.66;1672215;84;20219;-69
2022/09/05 07:28:42;;;;;;;;;;;;;;;18.51;57.60;101690.70;1684261;84;20724;-69
2022/09/05 07:31:27;;;;;;;;;;;;;;;18.57;57.51;101692.13;1681375;85;20195;-69
2022/09/05 07:34:21;;;;;;;;;;;;;;;18.80;57.37;101692.78;1656228;85;20191;-69
2022/09/05 07:37:22;;;;;;;;;;;;;;;18.78;57.20;101696.20;1676200;85;20207;-69
2022/09/05 07:40:16;;;;;;;;;;;;;;;19.02;57.19;101697.69;1679707;84;20520;-69
2022/09/05 07:43:09;;;;;;;;;;;;;;;19.15;56.99;101707.77;1678282;85;20534;-69
2022/09/05 07:46:16;;;;;;;;;;;;;;;19.27;56.81;101707.08;1678417;84;20552;-69
2022/09/05 07:49:06;;;;;;;;;;;;;;;19.33;56.69;101707.64;1679572;85;20199;-70
2022/09/05 07:51:55;;;;;;;;;;;;;;;19.35;56.52;101700.15;1679609;85;20211;-69
2022/09/05 07:54:40;;;;;;;;;;;;;;;19.62;56.47;101697.70;1677039;85;20499;-69
2022/09/05 07:57:31;;;;;;;;;;;;;;;19.70;56.21;101701.62;1679073;85;20456;-69
2022/09/05 08:00:20;;;;;;;;;;;;;;;19.72;56.12;101695.47;1676858;85;20199;-70
2022/09/05 08:03:11;;;;;;;;;;;;;;;19.82;55.95;101691.89;1679772;85;20515;-69
2022/09/05 08:05:58;;;;;;;;;;;;;;;19.75;55.62;101685.09;1657528;85;20199;-69
2022/09/05 08:08:52;;;;;;;;;;;;;;;19.76;55.50;101687.28;1678935;84;20259;-69
2022/09/05 08:11:36;;;;;;;;;;;;;;;19.77;55.41;101688.42;1679129;84;20214;-69
2022/09/05 08:14:35;;;;;;;;;;;;;;;20.01;55.30;101697.11;1682140;84;20223;-69
2022/09/05 08:17:20;;;;;;;;;;;;;;;19.98;55.10;101697.00;1680045;85;20187;-69
2022/09/05 08:20:25;;;;;;;;;;;;;;;19.96;55.01;101696.35;1675665;85;20490;-70
2022/09/05 08:23:29;;;;;;;;;;;;;;;20.04;54.89;101692.14;1675363;84;20684;-69
2022/09/05 08:26:26;;;;;;;;;;;;;;;20.09;54.70;101698.31;1663900;85;20873;-69
2022/09/05 08:29:30;;;;;;;;;;;;;;;20.06;54.57;101686.50;1679205;84;20191;-69
2022/09/05 08:32:18;;;;;;;;;;;;;;;20.02;54.31;101690.13;1678170;85;20187;-69
2022/09/05 08:35:10;;;;;;;;;;;;;;;20.22;54.34;101682.95;1680742;85;20484;-69
2022/09/05 08:37:54;;;;;;;;;;;;;;;20.44;54.17;101687.23;1677641;84;20286;-69
2022/09/05 08:40:48;;;;;;;;;;;;;;;20.44;54.03;101686.42;1656731;85;20223;-70
2022/09/05 08:43:35;;;;;;;;;;;;;;;20.50;53.93;101684.24;1669218;85;20219;-69
2022/09/05 08:46:35;;;;;;;;;;;;;;;20.55;53.66;101679.58;1672445;84;20539;-69
2022/09/05 08:49:34;;;;;;;;;;;;;;;20.56;53.55;101677.16;1679061;85;20507;-69
2022/09/05 08:52:26;;;;;;;;;;;;;;;20.61;53.46;101676.04;1678411;85;20823;-70
2022/09/05 08:55:40;;;;;;;;;;;;;;;20.56;53.29;101662.25;1677636;85;20195;-69
2022/09/05 08:58:36;;;;;;;;;;;;;;;20.63;53.10;101668.52;1670377;85;20288;-70
2022/09/05 09:01:33;;;;;;;;;;;;;;;20.63;52.95;101665.30;1678002;84;20199;-69
2022/09/05 09:04:20;;;;;;;;;;;;;;;20.50;52.75;101666.63;1677189;85;20203;-69
2022/09/05 09:07:28;;;;;;;;;;;;;;;20.52;52.73;101654.20;1679719;85;20192;-69
2022/09/05 09:10:35;;;;;;;;;;;;;;;20.51;52.67;101666.11;1657194;84;20243;-69
2022/09/05 09:13:43;;;;;;;;;;;;;;;20.52;52.56;101663.69;1680034;85;20199;-70
2022/09/05 09:16:41;;;;;;;;;;;;;;;20.43;52.30;101656.28;1677542;85;20207;-69
2022/09/05 09:19:35;;;;;;;;;;;;;;;20.41;52.20;101646.98;1664844;84;20218;-69
2022/09/05 09:22:25;;;;;;;;;;;;;;;20.52;52.20;101647.43;1678197;85;20633;-69
2022/09/05 09:25:15;;;;;;;;;;;;;;;20.56;51.99;101652.24;1676134;85;20207;-69
2022/09/05 09:28:15;;;;;;;;;;;;;;;20.57;51.90;101655.80;1675903;85;20250;-70
2022/09/05 09:31:11;;;;;;;;;;;;;;;20.69;51.85;101644.68;1676442;85;20235;-69
2022/09/05 09:34:28;;;;;;;;;;;;;;;20.83;51.71;101647.70;1680444;84;20227;-69
2022/09/05 09:37:25;;;;;;;;;;;;;;;20.66;51.50;101646.42;1679651;85;20230;-69
2022/09/05 09:40:24;;;;;;;;;;;;;;;20.61;51.41;101643.51;1667174;85;20195;-70
2022/09/05 09:43:22;;;;;;;;;;;;;;;20.61;51.12;101653.84;1675779;85;20480;-69
2022/09/05 09:46:21;;;;;;;;;;;;;;;20.55;50.48;101641.62;1674789;85;20513;-69
2022/09/05 09:49:32;;;;;;;;;;;;;;;20.63;50.24;101644.13;1677079;84;20191;-69
2022/09/05 09:52:35;;;;;;;;;;;;;;;20.70;49.88;101639.55;1668188;85;20220;-69
2022/09/05 09:55:45;;;;;;;;;;;;;;;20.83;49.77;101633.63;1664114;84;20235;-69
2022/09/05 09:58:51;;;;;;;;;;;;;;;20.94;49.47;101632.17;1677062;85;20207;-69
2022/09/05 10:01:52;;;;;;;;;;;;;;;20.99;49.33;101625.62;1674514;85;20200;-69
2022/09/05 10:04:37;;;;;;;;;;;;;;;21.11;49.19;101629.39;1673421;84;20198;-69
2022/09/05 10:07:34;;;;;;;;;;;;;;;21.11;48.93;101621.25;1675447;84;20219;-69
2022/09/05 10:10:28;;;;;;;;;;;;;;;21.20;48.91;101619.17;1673342;84;20215;-69
2022/09/05 10:13:35;;;;;;;;;;;;;;;21.35;48.84;101626.06;1669095;84;20214;-69
2022/09/05 10:16:46;;;;;;;;;;;;;;;21.38;48.37;101622.92;1674823;85;20225;-70
2022/09/05 10:20:04;;;;;;;;;;;;;;;21.33;48.11;101628.13;1679688;84;20170;-70
2022/09/05 10:23:20;;;;;;;;;;;;;;;21.22;47.69;101620.63;1681669;84;20194;-70
2022/09/05 10:26:31;;;;;;;;;;;;;;;21.22;47.40;101612.48;1669354;84;20225;-70
2022/09/05 10:29:27;;;;;;;;;;;;;;;21.32;47.25;101618.31;1675590;85;20223;-70
2022/09/05 10:32:26;;;;;;;;;;;;;;;21.45;47.23;101612.56;1677351;85;20207;-70
2022/09/05 10:35:20;;;;;;;;;;;;;;;21.66;47.15;101610.95;1673355;85;20221;-70
2022/09/05 10:38:17;;;;;;;;;;;;;;;21.70;46.90;101604.89;1662074;85;20199;-70
2022/09/05 10:41:06;;;;;;;;;;;;;;;21.68;46.37;101606.97;1676502;85;20243;-70
2022/09/05 10:43:59;;;;;;;;;;;;;;;21.70;46.16;101614.92;1676954;84;20314;-70
2022/09/05 10:46:52;;;;;;;;;;;;;;;21.76;45.93;101604.55;1659140;85;20212;-70
2022/09/05 10:49:40;;;;;;;;;;;;;;;21.61;45.38;101606.67;1676713;85;20211;-70
2022/09/05 10:52:35;;;;;;;;;;;;;;;21.62;45.18;101600.20;1671140;84;20219;-70
2022/09/05 10:55:25;;;;;;;;;;;;;;;21.61;44.86;101603.95;1662776;85;20616;-70
2022/09/05 10:58:22;;;;;;;;;;;;;;;21.70;44.82;101608.12;1642619;84;20211;-69
2022/09/05 11:01:10;;;;;;;;;;;;;;;21.63;44.35;101601.88;1659884;85;20203;-70
2022/09/05 11:04:07;;;;;;;;;;;;;;;21.70;44.51;101601.34;1675101;85;20508;-70
2022/09/05 11:07:00;;;;;;;;;;;;;;;21.89;44.48;101600.42;1675641;84;20219;-70
2022/09/05 11:09:51;;;;;;;;;;;;;;;21.96;44.37;101590.39;1676583;85;20195;-70
2022/09/05 11:13:04;;;;;;;;;;;;;;;22.10;44.45;101589.28;1671820;84;20230;-70
2022/09/05 11:15:56;;;;;;;;;;;;;;;22.26;44.42;101584.72;1675594;85;20587;-70
2022/09/05 11:18:58;;;;;;;;;;;;;;;22.08;44.02;101581.89;1670169;85;20191;-70
2022/09/05 11:22:02;;;;;;;;;;;;;;;22.04;43.85;101584.72;1682862;84;20190;-70
2022/09/05 11:24:54;;;;;;;;;;;;;;;21.94;43.59;101586.23;1672918;84;20219;-70
2022/09/05 11:27:44;;;;;;;;;;;;;;;21.90;43.26;101589.91;1674980;85;20234;-70
2022/09/05 11:30:30;;;;;;;;;;;;;;;21.88;43.28;101583.28;1670383;85;20204;-69
2022/09/05 11:33:43;;;;;;;;;;;;;;;21.84;43.27;101581.23;1677025;84;20663;-69
2022/09/05 11:36:45;;;;;;;;;;;;;;;21.78;43.39;101580.71;1670045;84;20203;-70
2022/09/05 11:39:56;;;;;;;;;;;;;;;21.74;43.43;101584.94;1672358;84;20251;-70
2022/09/05 11:43:02;;;;;;;;;;;;;;;21.57;43.36;101587.81;1683217;84;20204;-70
2022/09/05 11:45:50;;;;;;;;;;;;;;;21.61;43.61;101580.88;1675247;84;20215;-70
2022/09/05 11:48:49;;;;;;;;;;;;;;;21.72;43.74;101582.94;1676749;85;20207;-70
2022/09/05 11:51:37;;;;;;;;;;;;;;;21.75;43.65;101584.70;1671574;85;20480;-70
2022/09/05 11:54:31;;;;;;;;;;;;;;;21.86;43.47;101584.56;1674950;85;20499;-70
2022/09/05 11:57:38;;;;;;;;;;;;;;;21.74;43.14;101572.71;1664362;85;20542;-70
2022/09/05 12:00:24;;;;;;;;;;;;;;;21.89;43.16;101574.62;1663278;85;20199;-70
2022/09/05 12:03:21;;;;;;;;;;;;;;;22.11;43.12;101570.58;1675612;85;20511;-70
2022/09/05 12:06:10;;;;;;;;;;;;;;;22.14;43.06;101570.14;1669015;85;20239;-70
2022/09/05 12:09:17;;;;;;;;;;;;;;;21.99;42.82;101561.98;1654480;85;20194;-69
2022/09/05 12:12:25;;;;;;;;;;;;;;;21.97;42.99;101561.34;1675089;85;20203;-70
2022/09/05 12:15:32;;;;;;;;;;;;;;;22.05;42.76;101570.09;1676236;85;20190;-70
2022/09/05 12:18:19;;;;;;;;;;;;;;;21.95;42.66;101561.58;1670883;85;20195;-69
2022/09/05 12:21:27;;;;;;;;;;;;;;;21.91;42.62;101558.98;1666006;85;20517;-70
2022/09/05 12:24:26;;;;;;;;;;;;;;;22.01;42.40;101552.56;1666978;84;20407;-70
2022/09/05 12:27:12;;;;;;;;;;;;;;;21.88;42.01;101556.67;1666992;85;20215;-70
2022/09/05 12:30:05;;;;;;;;;;;;;;;21.80;42.02;101555.55;1677801;85;20223;-69
2022/09/05 12:32:55;;;;;;;;;;;;;;;21.79;41.96;101557.42;1667647;85;20237;-69
2022/09/05 12:36:07;;;;;;;;;;;;;;;21.87;41.89;101550.92;1666655;84;20523;-70
2022/09/05 12:38:54;;;;;;;;;;;;;;;21.89;41.60;101556.96;1631576;87;20292;-70
2022/09/05 12:41:42;;;;;;;;;;;;;;;21.99;41.37;101549.20;1674959;85;20243;-69
2022/09/05 12:44:41;;;;;;;;;;;;;;;21.88;41.17;101555.31;1677519;85;20519;-69
2022/09/05 12:47:28;;;;;;;;;;;;;;;21.76;41.02;101550.23;1671055;85;20468;-69
2022/09/05 12:50:16;;;;;;;;;;;;;;;21.81;40.95;101542.29;1673630;85;20387;-70
2022/09/05 12:53:05;;;;;;;;;;;;;;;21.90;40.82;101539.13;1677856;85;20204;-70
2022/09/05 12:55:52;;;;;;;;;;;;;;;21.85;40.81;101539.42;1675360;85;20199;-70
2022/09/05 12:58:36;;;;;;;;;;;;;;;21.94;40.93;101544.97;1675465;85;20191;-70
2022/09/05 13:01:23;;;;;;;;;;;;;;;22.06;40.99;101535.62;1679094;84;20535;-70
2022/09/05 13:04:18;;;;;;;;;;;;;;;21.99;40.74;101538.34;1679224;84;20573;-69
2022/09/05 13:07:06;;;;;;;;;;;;;;;22.04;40.44;101543.13;1654404;84;20301;-70
2022/09/05 13:09:55;;;;;;;;;;;;;;;22.10;40.25;101541.73;1671048;84;20222;-70
2022/09/05 13:12:46;;;;;;;;;;;;;;;22.10;40.17;101540.38;1677617;84;20177;-70
2022/09/05 13:15:35;;;;;;;;;;;;;;;22.09;40.21;101541.45;1667009;84;20239;-70
2022/09/05 13:18:21;;;;;;;;;;;;;;;22.01;40.27;101533.54;1683833;84;20265;-69
2022/09/05 13:21:11;;;;;;;;;;;;;;;22.02;40.35;101539.30;1672841;84;20593;-70
2022/09/05 13:24:10;;;;;;;;;;;;;;;22.17;40.43;101527.58;1677430;85;20223;-70
2022/09/05 13:27:05;;;;;;;;;;;;;;;22.20;40.12;101529.86;1669604;84;20477;-69
2022/09/05 13:29:55;;;;;;;;;;;;;;;22.22;40.02;101514.19;1674347;85;20290;-70
2022/09/05 13:32:43;;;;;;;;;;;;;;;22.28;40.11;101516.02;1673732;85;20195;-70
2022/09/05 13:35:31;;;;;;;;;;;;;;;22.33;40.18;101513.48;1668175;85;20212;-70
2022/09/05 13:38:15;;;;;;;;;;;;;;;22.39;40.23;101512.59;1671792;85;20202;-70
2022/09/05 13:41:00;;;;;;;;;;;;;;;22.37;40.01;101517.44;1673142;85;20498;-70
2022/09/05 13:43:44;;;;;;;;;;;;;;;22.23;39.77;101509.06;1629513;85;20219;-70
2022/09/05 13:46:53;;;;;;;;;;;;;;;22.20;39.63;101510.84;1675843;85;20195;-70
2022/09/05 13:50:06;;;;;;;;;;;;;;;22.26;39.60;101503.19;1676737;84;20195;-70
2022/09/05 13:53:06;;;;;;;;;;;;;;;22.30;39.51;101496.27;1661017;85;20192;-70
2022/09/05 13:55:52;;;;;;;;;;;;;;;22.18;39.41;101498.01;1669445;85;20199;-69
2022/09/05 13:58:41;;;;;;;;;;;;;;;22.05;39.31;101496.74;1676726;85;20187;-70
2022/09/05 14:01:52;;;;;;;;;;;;;;;22.07;39.27;101499.22;1676692;85;20200;-70
2022/09/05 14:04:43;;;;;;;;;;;;;;;22.19;39.32;101500.20;1676777;84;20492;-70
2022/09/05 14:07:33;;;;;;;;;;;;;;;22.32;39.21;101494.14;1677012;84;20215;-70
2022/09/05 14:10:52;;;;;;;;;;;;;;;22.32;39.10;101486.51;1657663;85;20215;-69
2022/09/05 14:13:40;;;;;;;;;;;;;;;22.28;38.98;101491.55;1676732;85;20219;-69
2022/09/05 14:16:26;;;;;;;;;;;;;;;22.22;39.03;101491.61;1676821;85;20507;-70
2022/09/05 14:22:41;;;;;;;;;;;;;;;22.14;38.98;101491.34;1675262;85;20199;-70
2022/09/05 14:25:26;;;;;;;;;;;;;;;22.15;39.08;101485.38;1671676;85;20203;-70
2022/09/05 14:28:19;;;;;;;;;;;;;;;22.10;39.01;101483.31;1676827;84;20223;-70
2022/09/05 14:30:51;;;;;;;;;;;;;;;21.97;39.01;101480.69;1676517;85;20568;-70
2022/09/05 14:33:33;;;;;;;;;;;;;;;21.89;39.07;101471.39;1676723;85;20492;-69
2022/09/05 14:36:12;;;;;;;;;;;;;;;21.85;39.12;101478.31;1676864;85;21072;-69
2022/09/05 14:38:58;;;;;;;;;;;;;;;21.85;39.17;101471.52;1676533;84;20200;-69
2022/09/05 14:41:55;;;;;;;;;;;;;;;21.76;39.20;101471.48;1666789;84;20502;-70
2022/09/05 14:44:33;;;;;;;;;;;;;;;21.66;39.29;101464.33;1675156;85;20207;-69
2022/09/05 14:47:12;;;;;;;;;;;;;;;21.54;39.37;101466.88;1677682;84;20191;-69
2022/09/05 14:49:54;;;;;;;;;;;;;;;21.43;39.40;101460.24;1678162;85;21161;-69
2022/09/05 14:52:25;;;;;;;;;;;;;;;21.35;39.45;101464.58;1678040;85;20272;-69
2022/09/05 14:54:53;;;;;;;;;;;;;;;21.31;39.44;101458.42;1678235;85;20194;-69
2022/09/05 14:57:21;;;;;;;;;;;;;;;21.29;39.47;101458.62;1678310;85;20210;-69
2022/09/05 14:59:49;;;;;;;;;;;;;;;21.30;39.50;101454.88;1678125;84;20528;-69
2022/09/05 15:02:19;;;;;;;;;;;;;;;21.26;39.51;101456.34;1660714;85;21938;-69
2022/09/05 15:04:51;;;;;;;;;;;;;;;21.23;39.54;101455.42;1678070;84;20490;-69
2022/09/05 15:07:28;;;;;;;;;;;;;;;21.22;39.64;101449.67;1677973;85;20181;-69